Dimitris — SVA3557 — position and weather

sailwx.info

Track history (hours):
 
Tides and Currents Weather Stations Pressure Air Temp Water Temp Dewpoint Dewpoint Depression Visibility Wind Speed Wind Dir Waves Ship Positions

Dimitris

Last reported at 2017-Dec-29 08:18 UTC. Time now 2018-Feb-18 01:51 UTC.
Position N 38°16' E 024°09'.
Warning: this ship's position is 50 days out of date.

Length 76 m; draft 2.4 m.

Type: Passenger vessel. MMSI: 239710200.

Date/timePositionNaut miles runAvg speedWind from/ knotsBaromVisibWave heightAir tempDewpointWater temp
2017-Dec-29 08:18N 38°16' E 024°09'3 9.5
2017-Dec-29 07:57N 38°13' E 024°07'510.1
2017-Dec-29 07:28N 38°11' E 024°12'2 2.0
2017-Dec-29 06:38N 38°11' E 024°10'2 9.9
2017-Dec-29 06:24N 38°10' E 024°07'1 1.0
2017-Dec-29 05:10N 38°11' E 024°06'1 9.5
2017-Dec-29 05:00N 38°10' E 024°08'4 0.2
2017-Dec-28 09:39N 38°11' E 024°12'2 9.6
2017-Dec-28 09:29N 38°11' E 024°10'3 2.7
2017-Dec-28 08:13N 38°10' E 024°06'2 7.8
2017-Dec-28 08:00N 38°10' E 024°08'3 3.0
2017-Dec-28 06:52N 38°11' E 024°12'4 9.2
2017-Dec-28 06:28N 38°10' E 024°08'1 1.0
2017-Dec-28 05:08N 38°10' E 024°06'1 8.4
2017-Dec-28 05:00N 38°10' E 024°07'4 0.3
2017-Dec-27 17:33N 38°11' E 024°12'0 3.1
2017-Dec-27 17:30N 38°11' E 024°12'3 5.5
2017-Dec-27 16:55N 38°11' E 024°08'1 1.7
2017-Dec-27 16:06N 38°11' E 024°06'1 9.7
2017-Dec-27 16:00N 38°11' E 024°07'2 2.6
2017-Dec-27 15:03N 38°11' E 024°10'110.1
2017-Dec-27 14:59N 38°11' E 024°09'2 2.7
2017-Dec-27 14:04N 38°11' E 024°06'110.1
2017-Dec-27 13:59N 38°11' E 024°07'2 2.4
2017-Dec-27 13:03N 38°11' E 024°10'110.1
2017-Dec-27 12:59N 38°11' E 024°09'2 2.7
2017-Dec-27 12:05N 38°11' E 024°06'1 9.9
2017-Dec-27 12:00N 38°11' E 024°07'2 0.9
2017-Dec-27 09:20N 38°11' E 024°10'3 2.2
2017-Dec-27 08:01N 38°11' E 024°06'010.9
2017-Dec-27 08:00N 38°11' E 024°07'2 1.4
2017-Dec-27 06:30N 38°11' E 024°09'2 1.8
2017-Dec-27 05:06N 38°11' E 024°06'1 9.9
2017-Dec-27 05:00N 38°11' E 024°07'4 0.3
2017-Dec-26 17:37N 38°11' E 024°12'210.3
2017-Dec-26 17:27N 38°11' E 024°10'3 3.3
2017-Dec-26 16:33N 38°11' E 024°06'1 9.9
2017-Dec-26 16:30N 38°11' E 024°07'4 3.6
2017-Dec-26 15:22N 38°11' E 024°12'410.0
2017-Dec-26 15:00N 38°11' E 024°08'1 1.3
2017-Dec-26 14:17N 38°11' E 024°06'5 9.9
2017-Dec-26 13:49N 38°11' E 024°12'0 0.1
2017-Dec-26 13:14N 38°11' E 024°12'310.1
2017-Dec-26 12:59N 38°11' E 024°09'2 2.3
2017-Dec-26 12:02N 38°11' E 024°06'0 9.9
2017-Dec-26 12:00N 38°11' E 024°07'4 5.6
2017-Dec-26 11:13N 38°11' E 024°12'310.1
2017-Dec-26 10:58N 38°11' E 024°09'2 2.2
2017-Dec-26 10:02N 38°11' E 024°06'110.0
2017-Dec-26 09:59N 38°11' E 024°07'2 2.7
2017-Dec-26 09:04N 38°11' E 024°10'110.1
2017-Dec-26 08:59N 38°11' E 024°09'2 1.5
2017-Dec-26 07:48N 38°11' E 024°07'4 9.8
2017-Dec-26 07:21N 38°11' E 024°12'0 0.1
2017-Dec-26 07:00N 38°11' E 024°12'7 5.2
2017-Dec-26 05:44N 38°11' E 024°04'210.1
2017-Dec-26 05:30N 38°11' E 024°07'4 0.3
2017-Dec-25 15:46N 38°11' E 024°12'3 9.9
2017-Dec-25 15:30N 38°11' E 024°09'2 2.3
2017-Dec-25 14:33N 38°11' E 024°06'110.7
2017-Dec-25 14:30N 38°11' E 024°07'4 0.8
2017-Dec-25 09:30N 38°11' E 024°12'5 3.3
2017-Dec-25 08:03N 38°11' E 024°06'110.1
2017-Dec-25 08:00N 38°11' E 024°07'4 0.3
2017-Dec-24 17:38N 38°11' E 024°12'310.2
2017-Dec-24 17:23N 38°11' E 024°09'2 2.4
2017-Dec-24 16:32N 38°11' E 024°06'1 9.8
2017-Dec-24 16:28N 38°11' E 024°07'4 3.6
2017-Dec-24 15:22N 38°11' E 024°12'410.0
2017-Dec-24 15:00N 38°11' E 024°08'1 1.7
2017-Dec-24 14:18N 38°11' E 024°06'5 9.7
2017-Dec-24 13:48N 38°11' E 024°12'0 0.1
2017-Dec-24 13:17N 38°11' E 024°12'4 9.7
2017-Dec-24 12:55N 38°11' E 024°08'1 1.3
2017-Dec-24 12:04N 38°11' E 024°06'1 9.7
2017-Dec-24 12:00N 38°11' E 024°07'2 1.8
2017-Dec-24 11:04N 38°11' E 024°09'110.1
2017-Dec-24 10:57N 38°11' E 024°08'1 1.3
2017-Dec-24 10:06N 38°11' E 024°06'1 9.6
2017-Dec-24 10:00N 38°11' E 024°07'4 5.1
2017-Dec-24 09:15N 38°11' E 024°12'5 3.4
2017-Dec-24 07:48N 38°11' E 024°06'5 9.8
2017-Dec-24 07:19N 38°11' E 024°12'2 4.5
2017-Dec-24 06:46N 38°11' E 024°09'2 1.9
2017-Dec-24 05:35N 38°11' E 024°06'1 9.9
2017-Dec-24 05:29N 38°11' E 024°07'4 0.1
2017-Dec-22 09:35N 38°11' E 024°12'2 9.8
2017-Dec-22 09:24N 38°11' E 024°10'3 2.2
2017-Dec-22 08:05N 38°11' E 024°06'1 9.6
2017-Dec-22 08:00N 38°11' E 024°07'4 3.4
2017-Dec-22 06:48N 38°11' E 024°12'4 9.3
2017-Dec-22 06:25N 38°11' E 024°08'0 0.2
2017-Dec-22 05:00N 38°11' E 024°07'4 0.3
2017-Dec-21 17:18N 38°11' E 024°12'4 9.9
2017-Dec-21 16:56N 38°11' E 024°08'1 1.3
2017-Dec-21 16:04N 38°11' E 024°06'1 9.2
2017-Dec-21 16:00N 38°11' E 024°07'2 2.4
2017-Dec-21 15:02N 38°11' E 024°10'110.0
2017-Dec-21 14:59N 38°11' E 024°09'2 2.4
2017-Dec-21 14:03N 38°11' E 024°06'1 9.1
2017-Dec-21 14:00N 38°11' E 024°07'4 5.9
2017-Dec-21 13:16N 38°11' E 024°12'3 9.7
2017-Dec-21 13:00N 38°11' E 024°09'2 2.5
2017-Dec-21 12:05N 38°11' E 024°06'1 9.2
2017-Dec-21 12:00N 38°11' E 024°07'2 0.8
2017-Dec-21 09:18N 38°11' E 024°10'3 2.8
2017-Dec-21 08:07N 38°11' E 024°06'1 9.3
2017-Dec-21 08:00N 38°11' E 024°07'2 1.5
2017-Dec-21 06:33N 38°11' E 024°10'110.1
2017-Dec-21 06:30N 38°11' E 024°09'2 1.7
2017-Dec-21 05:06N 38°11' E 024°06'1 9.4
2017-Dec-21 05:00N 38°11' E 024°07'4 0.3
2017-Dec-20 17:20N 38°11' E 024°12'3 9.9
2017-Dec-20 16:59N 38°11' E 024°08'1 1.6
2017-Dec-20 16:03N 38°11' E 024°06'110.5
2017-Dec-20 16:00N 38°11' E 024°07'4 5.6
2017-Dec-20 15:14N 38°11' E 024°12'310.0
2017-Dec-20 14:58N 38°11' E 024°09'2 2.8
2017-Dec-20 14:05N 38°11' E 024°06'110.0
2017-Dec-20 13:58N 38°11' E 024°07'4 5.3
2017-Dec-20 13:14N 38°11' E 024°12'2 9.9
2017-Dec-20 12:59N 38°11' E 024°09'2 2.7
2017-Dec-20 12:05N 38°11' E 024°06'110.0
2017-Dec-20 12:00N 38°11' E 024°07'1 0.1
2017-Dec-20 08:03N 38°11' E 024°06'110.3
2017-Dec-20 08:00N 38°11' E 024°07'2 1.7
2017-Dec-20 06:35N 38°11' E 024°10'1 9.6
2017-Dec-20 06:27N 38°11' E 024°08'2 1.3
2017-Dec-20 05:06N 38°11' E 024°06'110.0
2017-Dec-20 05:00N 38°11' E 024°07'4 0.9
2017-Dec-20 00:28N 38°11' E 024°12'0 0.0
2017-Dec-19 20:45N 38°11' E 024°12'0 0.0
2017-Dec-19 20:27N 38°11' E 024°12'0 0.0
2017-Dec-19 20:00N 38°11' E 024°12'0 0.0
2017-Dec-19 17:17N 38°11' E 024°12'4 9.8
2017-Dec-19 16:54N 38°11' E 024°08'1 1.2
2017-Dec-19 16:02N 38°11' E 024°06'010.3
2017-Dec-19 16:00N 38°11' E 024°07'4 5.8
2017-Dec-19 15:15N 38°11' E 024°12'2 9.5
2017-Dec-19 15:00N 38°11' E 024°09'2 2.3
2017-Dec-19 14:02N 38°11' E 024°06'010.1
2017-Dec-19 14:00N 38°11' E 024°07'4 6.1
2017-Dec-19 13:16N 38°11' E 024°12'3 9.6
2017-Dec-19 13:00N 38°11' E 024°09'2 1.8
2017-Dec-19 12:01N 38°11' E 024°07'010.3
2017-Dec-19 11:59N 38°11' E 024°07'4 1.5
2017-Dec-19 09:28N 38°11' E 024°12'  
Track history (hours):
 
Tides and Currents Weather Stations Pressure Air Temp Water Temp Dewpoint Dewpoint Depression Visibility Wind Speed Wind Dir Waves Ship Positions

Dimitris

Last reported at 2017-Dec-29 08:18 UTC. Time now 2018-Feb-18 01:51 UTC.
Position N 38°16' E 024°09'.
Warning: this ship's position is 50 days out of date.

Length 76 m; draft 2.4 m.

Type: Passenger vessel. MMSI: 239710200.

Date/timePositionNaut miles runAvg speedWind from/ knotsBaromVisibWave heightAir tempDewpointWater temp
2017-Dec-29 08:18N 38°16' E 024°09'3 9.5
2017-Dec-29 07:57N 38°13' E 024°07'510.1
2017-Dec-29 07:28N 38°11' E 024°12'2 2.0
2017-Dec-29 06:38N 38°11' E 024°10'2 9.9
2017-Dec-29 06:24N 38°10' E 024°07'1 1.0
2017-Dec-29 05:10N 38°11' E 024°06'1 9.5
2017-Dec-29 05:00N 38°10' E 024°08'4 0.2
2017-Dec-28 09:39N 38°11' E 024°12'2 9.6
2017-Dec-28 09:29N 38°11' E 024°10'3 2.7
2017-Dec-28 08:13N 38°10' E 024°06'2 7.8
2017-Dec-28 08:00N 38°10' E 024°08'3 3.0
2017-Dec-28 06:52N 38°11' E 024°12'4 9.2
2017-Dec-28 06:28N 38°10' E 024°08'1 1.0
2017-Dec-28 05:08N 38°10' E 024°06'1 8.4
2017-Dec-28 05:00N 38°10' E 024°07'4 0.3
2017-Dec-27 17:33N 38°11' E 024°12'0 3.1
2017-Dec-27 17:30N 38°11' E 024°12'3 5.5
2017-Dec-27 16:55N 38°11' E 024°08'1 1.7
2017-Dec-27 16:06N 38°11' E 024°06'1 9.7
2017-Dec-27 16:00N 38°11' E 024°07'2 2.6
2017-Dec-27 15:03N 38°11' E 024°10'110.1
2017-Dec-27 14:59N 38°11' E 024°09'2 2.7
2017-Dec-27 14:04N 38°11' E 024°06'110.1
2017-Dec-27 13:59N 38°11' E 024°07'2 2.4
2017-Dec-27 13:03N 38°11' E 024°10'110.1
2017-Dec-27 12:59N 38°11' E 024°09'2 2.7
2017-Dec-27 12:05N 38°11' E 024°06'1 9.9
2017-Dec-27 12:00N 38°11' E 024°07'2 0.9
2017-Dec-27 09:20N 38°11' E 024°10'3 2.2
2017-Dec-27 08:01N 38°11' E 024°06'010.9
2017-Dec-27 08:00N 38°11' E 024°07'2 1.4
2017-Dec-27 06:30N 38°11' E 024°09'2 1.8
2017-Dec-27 05:06N 38°11' E 024°06'1 9.9
2017-Dec-27 05:00N 38°11' E 024°07'4 0.3
2017-Dec-26 17:37N 38°11' E 024°12'210.3
2017-Dec-26 17:27N 38°11' E 024°10'3 3.3
2017-Dec-26 16:33N 38°11' E 024°06'1 9.9
2017-Dec-26 16:30N 38°11' E 024°07'4 3.6
2017-Dec-26 15:22N 38°11' E 024°12'410.0
2017-Dec-26 15:00N 38°11' E 024°08'1 1.3
2017-Dec-26 14:17N 38°11' E 024°06'5 9.9
2017-Dec-26 13:49N 38°11' E 024°12'0 0.1
2017-Dec-26 13:14N 38°11' E 024°12'310.1
2017-Dec-26 12:59N 38°11' E 024°09'2 2.3
2017-Dec-26 12:02N 38°11' E 024°06'0 9.9
2017-Dec-26 12:00N 38°11' E 024°07'4 5.6
2017-Dec-26 11:13N 38°11' E 024°12'310.1
2017-Dec-26 10:58N 38°11' E 024°09'2 2.2
2017-Dec-26 10:02N 38°11' E 024°06'110.0
2017-Dec-26 09:59N 38°11' E 024°07'2 2.7
2017-Dec-26 09:04N 38°11' E 024°10'110.1
2017-Dec-26 08:59N 38°11' E 024°09'2 1.5
2017-Dec-26 07:48N 38°11' E 024°07'4 9.8
2017-Dec-26 07:21N 38°11' E 024°12'0 0.1
2017-Dec-26 07:00N 38°11' E 024°12'7 5.2
2017-Dec-26 05:44N 38°11' E 024°04'210.1
2017-Dec-26 05:30N 38°11' E 024°07'4 0.3
2017-Dec-25 15:46N 38°11' E 024°12'3 9.9
2017-Dec-25 15:30N 38°11' E 024°09'2 2.3
2017-Dec-25 14:33N 38°11' E 024°06'110.7
2017-Dec-25 14:30N 38°11' E 024°07'4 0.8
2017-Dec-25 09:30N 38°11' E 024°12'5 3.3
2017-Dec-25 08:03N 38°11' E 024°06'110.1
2017-Dec-25 08:00N 38°11' E 024°07'4 0.3
2017-Dec-24 17:38N 38°11' E 024°12'310.2
2017-Dec-24 17:23N 38°11' E 024°09'2 2.4
2017-Dec-24 16:32N 38°11' E 024°06'1 9.8
2017-Dec-24 16:28N 38°11' E 024°07'4 3.6
2017-Dec-24 15:22N 38°11' E 024°12'410.0
2017-Dec-24 15:00N 38°11' E 024°08'1 1.7
2017-Dec-24 14:18N 38°11' E 024°06'5 9.7
2017-Dec-24 13:48N 38°11' E 024°12'0 0.1
2017-Dec-24 13:17N 38°11' E 024°12'4 9.7
2017-Dec-24 12:55N 38°11' E 024°08'1 1.3
2017-Dec-24 12:04N 38°11' E 024°06'1 9.7
2017-Dec-24 12:00N 38°11' E 024°07'2 1.8
2017-Dec-24 11:04N 38°11' E 024°09'110.1
2017-Dec-24 10:57N 38°11' E 024°08'1 1.3
2017-Dec-24 10:06N 38°11' E 024°06'1 9.6
2017-Dec-24 10:00N 38°11' E 024°07'4 5.1
2017-Dec-24 09:15N 38°11' E 024°12'5 3.4
2017-Dec-24 07:48N 38°11' E 024°06'5 9.8
2017-Dec-24 07:19N 38°11' E 024°12'2 4.5
2017-Dec-24 06:46N 38°11' E 024°09'2 1.9
2017-Dec-24 05:35N 38°11' E 024°06'1 9.9
2017-Dec-24 05:29N 38°11' E 024°07'4 0.1
2017-Dec-22 09:35N 38°11' E 024°12'2 9.8
2017-Dec-22 09:24N 38°11' E 024°10'3 2.2
2017-Dec-22 08:05N 38°11' E 024°06'1 9.6
2017-Dec-22 08:00N 38°11' E 024°07'4 3.4
2017-Dec-22 06:48N 38°11' E 024°12'4 9.3
2017-Dec-22 06:25N 38°11' E 024°08'0 0.2
2017-Dec-22 05:00N 38°11' E 024°07'4 0.3
2017-Dec-21 17:18N 38°11' E 024°12'4 9.9
2017-Dec-21 16:56N 38°11' E 024°08'1 1.3
2017-Dec-21 16:04N 38°11' E 024°06'1 9.2
2017-Dec-21 16:00N 38°11' E 024°07'2 2.4
2017-Dec-21 15:02N 38°11' E 024°10'110.0
2017-Dec-21 14:59N 38°11' E 024°09'2 2.4
2017-Dec-21 14:03N 38°11' E 024°06'1 9.1
2017-Dec-21 14:00N 38°11' E 024°07'4 5.9
2017-Dec-21 13:16N 38°11' E 024°12'3 9.7
2017-Dec-21 13:00N 38°11' E 024°09'2 2.5
2017-Dec-21 12:05N 38°11' E 024°06'1 9.2
2017-Dec-21 12:00N 38°11' E 024°07'2 0.8
2017-Dec-21 09:18N 38°11' E 024°10'3 2.8
2017-Dec-21 08:07N 38°11' E 024°06'1 9.3
2017-Dec-21 08:00N 38°11' E 024°07'2 1.5
2017-Dec-21 06:33N 38°11' E 024°10'110.1
2017-Dec-21 06:30N 38°11' E 024°09'2 1.7
2017-Dec-21 05:06N 38°11' E 024°06'1 9.4
2017-Dec-21 05:00N 38°11' E 024°07'4 0.3
2017-Dec-20 17:20N 38°11' E 024°12'3 9.9
2017-Dec-20 16:59N 38°11' E 024°08'1 1.6
2017-Dec-20 16:03N 38°11' E 024°06'110.5
2017-Dec-20 16:00N 38°11' E 024°07'4 5.6
2017-Dec-20 15:14N 38°11' E 024°12'310.0
2017-Dec-20 14:58N 38°11' E 024°09'2 2.8
2017-Dec-20 14:05N 38°11' E 024°06'110.0
2017-Dec-20 13:58N 38°11' E 024°07'4 5.3
2017-Dec-20 13:14N 38°11' E 024°12'2 9.9
2017-Dec-20 12:59N 38°11' E 024°09'2 2.7
2017-Dec-20 12:05N 38°11' E 024°06'110.0
2017-Dec-20 12:00N 38°11' E 024°07'1 0.1
2017-Dec-20 08:03N 38°11' E 024°06'110.3
2017-Dec-20 08:00N 38°11' E 024°07'2 1.7
2017-Dec-20 06:35N 38°11' E 024°10'1 9.6
2017-Dec-20 06:27N 38°11' E 024°08'2 1.3
2017-Dec-20 05:06N 38°11' E 024°06'110.0
2017-Dec-20 05:00N 38°11' E 024°07'4 0.9
2017-Dec-20 00:28N 38°11' E 024°12'0 0.0
2017-Dec-19 20:45N 38°11' E 024°12'0 0.0
2017-Dec-19 20:27N 38°11' E 024°12'0 0.0
2017-Dec-19 20:00N 38°11' E 024°12'0 0.0
2017-Dec-19 17:17N 38°11' E 024°12'4 9.8
2017-Dec-19 16:54N 38°11' E 024°08'1 1.2
2017-Dec-19 16:02N 38°11' E 024°06'010.3
2017-Dec-19 16:00N 38°11' E 024°07'4 5.8
2017-Dec-19 15:15N 38°11' E 024°12'2 9.5
2017-Dec-19 15:00N 38°11' E 024°09'2 2.3
2017-Dec-19 14:02N 38°11' E 024°06'010.1
2017-Dec-19 14:00N 38°11' E 024°07'4 6.1
2017-Dec-19 13:16N 38°11' E 024°12'3 9.6
2017-Dec-19 13:00N 38°11' E 024°09'2 1.8
2017-Dec-19 12:01N 38°11' E 024°07'010.3
2017-Dec-19 11:59N 38°11' E 024°07'4 1.5
2017-Dec-19 09:28N 38°11' E 024°12'  

Dump ship's entire track history